Time;durP1;ratioP1;P1;durP2;ratioP2;P2;SDS_P1;SDS_P2;PMS_P1;PMS_P2;Temp;Humidity;BMP_temperature;BMP_pressure;BME280_temperature;BME280_humidity;BME280_pressure;Samples;Min_cycle;Max_cycle;Signal;HPM_P1;HPM_P2
2022/10/27 00:02:27;;;;;;;46.65;20.77;;;;;;;-142.57;100.00;61215.63;4920960;29;20314;-84
2022/10/27 00:05:14;;;;;;;52.40;22.33;;;;;;;-142.57;100.00;61215.63;4913836;29;20541;-84
2022/10/27 00:08:13;;;;;;;48.72;21.88;;;;;;;-142.57;100.00;61215.63;4910462;29;20045;-86
2022/10/27 00:11:11;;;;;;;49.33;20.98;;;;;;;-142.57;100.00;61215.63;4917770;29;20097;-82
2022/10/27 00:14:00;;;;;;;48.08;20.30;;;;;;;-142.57;100.00;61215.63;4916250;29;20076;-83
2022/10/27 00:16:37;;;;;;;64.82;20.92;;;;;;;-142.57;100.00;61215.63;4917078;29;20037;-83
2022/10/27 00:19:19;;;;;;;48.97;20.60;;;;;;;-142.57;100.00;61215.63;4899010;29;20069;-85
2022/10/27 00:22:13;;;;;;;48.42;20.50;;;;;;;-142.57;100.00;61215.63;4916047;29;20056;-81
2022/10/27 00:24:42;;;;;;;54.75;21.52;;;;;;;-142.57;100.00;61215.63;4901167;29;20053;-82
2022/10/27 00:27:28;;;;;;;56.33;22.50;;;;;;;-142.57;100.00;61215.63;4898035;29;20185;-80
2022/10/27 00:30:18;;;;;;;51.15;22.50;;;;;;;-142.57;100.00;61215.63;4907080;29;20060;-80
2022/10/27 00:32:58;;;;;;;53.30;21.52;;;;;;;-142.57;100.00;61215.63;4892773;29;20053;-83
2022/10/27 00:35:30;;;;;;;46.40;22.58;;;;;;;-142.57;100.00;61215.63;4897321;29;20064;-79
2022/10/27 00:38:02;;;;;;;55.25;22.23;;;;;;;-142.57;100.00;61215.63;4907354;29;20040;-83
2022/10/27 00:40:43;;;;;;;57.58;24.23;;;;;;;-142.57;100.00;61215.63;4905665;29;20044;-81
2022/10/27 00:46:25;;;;;;;56.20;23.33;;;;;;;-142.57;100.00;61215.63;4774572;23;20057;-81
2022/10/27 00:50:08;;;;;;;57.85;22.70;;;;;;;-142.57;100.00;61215.63;4898560;29;20140;-82
2022/10/27 00:53:02;;;;;;;56.53;22.90;;;;;;;-142.57;100.00;61215.63;4916371;23;20065;-80
2022/10/27 00:55:38;;;;;;;46.83;22.25;;;;;;;-142.57;100.00;61215.63;4901240;29;20057;-82
2022/10/27 00:58:32;;;;;;;48.92;22.65;;;;;;;-142.57;100.00;61215.63;4880873;29;20158;-81
2022/10/27 01:01:02;;;;;;;52.88;22.92;;;;;;;-142.57;100.00;61215.63;4884359;29;20053;-81
2022/10/27 01:06:21;;;;;;;50.63;22.52;;;;;;;-142.57;100.00;61215.63;3990086;27;20300;-81
2022/10/27 01:08:50;;;;;;;56.58;23.67;;;;;;;-142.57;100.00;61215.63;4912189;29;20081;-82
2022/10/27 01:13:57;;;;;;;62.00;23.75;;;;;;;-142.57;100.00;61215.63;4150682;27;20086;-82
2022/10/27 01:16:38;;;;;;;69.32;22.63;;;;;;;-142.57;100.00;61215.63;4930384;29;20073;-83
2022/10/27 01:19:27;;;;;;;56.75;23.83;;;;;;;-142.57;100.00;61215.63;4900541;29;20108;-82
2022/10/27 01:22:26;;;;;;;60.22;23.00;;;;;;;-142.57;100.00;61215.63;4981422;23;20057;-82
2022/10/27 01:25:27;;;;;;;52.78;23.95;;;;;;;-142.57;100.00;61215.63;4880154;29;20053;-82
2022/10/27 01:28:46;;;;;;;55.30;24.80;;;;;;;-142.57;100.00;61215.63;4894602;29;20056;-84
2022/10/27 01:31:35;;;;;;;56.38;23.75;;;;;;;-142.57;100.00;61215.63;4890823;29;20057;-82
2022/10/27 01:34:28;;;;;;;58.55;24.17;;;;;;;-142.57;100.00;61215.63;4882021;29;20052;-79
2022/10/27 01:37:19;;;;;;;56.75;23.33;;;;;;;-142.57;100.00;61215.63;4898294;29;20114;-83
2022/10/27 01:40:06;;;;;;;55.40;24.27;;;;;;;-142.57;100.00;61215.63;4881041;29;20046;-81
2022/10/27 01:45:59;;;;;;;60.92;22.67;;;;;;;-142.57;100.00;61215.63;4085845;27;20029;-80
2022/10/27 01:51:42;;;;;;;51.70;21.30;;;;;;;-142.57;100.00;61215.63;4928281;29;19919;-79
2022/10/27 01:54:20;;;;;;;48.70;22.80;;;;;;;-142.57;100.00;61215.63;4927689;29;20055;-79
2022/10/27 01:57:30;;;;;;;54.10;21.50;;;;;;;-142.57;100.00;61215.63;4922556;29;20420;-80
2022/10/27 02:00:15;;;;;;;45.75;21.23;;;;;;;-142.57;100.00;61215.63;4937856;29;20047;-81
2022/10/27 02:03:30;;;;;;;51.90;21.92;;;;;;;-142.57;100.00;61215.63;4927691;29;20060;-79
2022/10/27 07:04:31;;;;;;;57.33;22.40;;;;;;;-142.57;100.00;61215.63;5490536;23;20043;-81
2022/10/27 08:17:37;;;;;;;52.13;23.00;;;;;;;-142.57;100.00;61215.63;5395315;23;20076;-90
2022/10/27 08:20:08;;;;;;;53.63;21.35;;;;;;;-142.57;100.00;61215.63;4955052;29;20007;-89
2022/10/27 08:22:36;;;;;;;49.20;22.95;;;;;;;-142.57;100.00;61215.63;4926317;29;20040;-89
2022/10/27 08:25:02;;;;;;;58.88;24.20;;;;;;;-142.57;100.00;61215.63;4949693;29;20099;-89
2022/10/27 08:27:28;;;;;;;49.33;24.05;;;;;;;-142.57;100.00;61215.63;4953022;29;20067;-87
2022/10/27 08:29:53;;;;;;;60.10;25.42;;;;;;;-142.57;100.00;61215.63;4945144;29;20028;-89
2022/10/27 08:32:19;;;;;;;57.95;25.55;;;;;;;-142.57;100.00;61215.63;4953731;29;20041;-89
2022/10/27 08:34:44;;;;;;;72.53;27.58;;;;;;;-142.57;100.00;61215.63;4919358;29;20127;-93
2022/10/27 08:37:51;;;;;;;68.47;28.23;;;;;;;-142.57;100.00;61215.63;4950302;29;20040;-88
2022/10/27 08:40:17;;;;;;;62.97;28.65;;;;;;;-142.57;100.00;61215.63;4929837;29;20039;-91
2022/10/27 08:43:00;;;;;;;74.30;30.35;;;;;;;-142.57;100.00;61215.63;4945237;29;20036;-90
2022/10/27 08:45:29;;;;;;;71.85;29.05;;;;;;;-142.57;100.00;61215.63;4937910;29;20096;-92
2022/10/27 08:47:57;;;;;;;75.35;29.83;;;;;;;-142.57;100.00;61215.63;4928875;29;20046;-91
2022/10/27 08:50:27;;;;;;;64.25;29.23;;;;;;;-142.57;100.00;61215.63;4926412;29;20028;-92
2022/10/27 08:53:10;;;;;;;68.68;29.65;;;;;;;-142.57;100.00;61215.63;4928218;29;20486;-92
2022/10/27 08:55:48;;;;;;;75.32;32.25;;;;;;;-142.57;100.00;61215.63;4928558;29;20056;-92
2022/10/27 08:58:27;;;;;;;70.85;31.63;;;;;;;-142.57;100.00;61215.63;4930299;29;20032;-92
2022/10/27 09:01:07;;;;;;;78.82;33.08;;;;;;;-142.57;100.00;61215.63;4931296;29;20549;-93
2022/10/27 09:03:57;;;;;;;73.05;31.65;;;;;;;-142.57;100.00;61215.63;4926060;29;20043;-92
2022/10/27 09:06:28;;;;;;;71.68;31.88;;;;;;;-142.57;100.00;61215.63;4928136;29;20032;-89
2022/10/27 09:09:11;;;;;;;78.68;31.58;;;;;;;-142.57;100.00;61215.63;4932674;29;20052;-89
2022/10/27 09:11:43;;;;;;;80.32;32.72;;;;;;;-142.57;100.00;61215.63;4940046;29;20083;-92
2022/10/27 09:14:20;;;;;;;91.63;31.58;;;;;;;-142.57;100.00;61215.63;4938202;29;20035;-88
2022/10/27 09:17:08;;;;;;;70.43;31.35;;;;;;;-142.57;100.00;61215.63;4927334;29;20040;-89
2022/10/27 09:19:40;;;;;;;77.10;32.17;;;;;;;-142.57;100.00;61215.63;4929485;29;20069;-90
2022/10/27 09:22:15;;;;;;;;;;;;;;;-142.57;100.00;61215.63;4930478;29;20028;-91
2022/10/27 09:24:57;;;;;;;85.53;31.40;;;;;;;-142.57;100.00;61215.63;4936409;29;19915;-90
2022/10/27 09:27:23;;;;;;;79.93;31.38;;;;;;;-142.57;100.00;61215.63;4946347;29;20064;-88
2022/10/27 09:29:57;;;;;;;74.18;28.45;;;;;;;-142.57;100.00;61215.63;4944400;29;20035;-88
2022/10/27 09:32:26;;;;;;;62.75;28.00;;;;;;;-142.57;100.00;61215.63;4934424;29;20107;-89
2022/10/27 09:35:11;;;;;;;74.00;29.70;;;;;;;-142.57;100.00;61215.63;4939127;29;20020;-90
2022/10/27 09:37:39;;;;;;;65.38;28.77;;;;;;;-142.57;100.00;61215.63;4937743;29;20075;-89
2022/10/27 09:40:16;;;;;;;92.95;29.70;;;;;;;-142.57;100.00;61215.63;4918661;29;20409;-91
2022/10/27 09:42:47;;;;;;;73.15;29.75;;;;;;;-142.57;100.00;61215.63;4935233;29;20158;-90
2022/10/27 09:45:25;;;;;;;74.80;29.90;;;;;;;-142.57;100.00;61215.63;4941571;29;20036;-89
2022/10/27 09:48:03;;;;;;;86.20;31.88;;;;;;;-142.57;100.00;61215.63;4946952;29;20055;-89
2022/10/27 09:50:56;;;;;;;80.40;31.25;;;;;;;-142.57;100.00;61215.63;4942463;29;20055;-90
2022/10/27 09:53:42;;;;;;;79.22;31.92;;;;;;;-142.57;100.00;61215.63;4948228;29;20144;-88
2022/10/27 09:56:29;;;;;;;81.68;30.58;;;;;;;-142.57;100.00;61215.63;4941609;29;20064;-90
2022/10/27 09:59:01;;;;;;;82.88;32.05;;;;;;;-142.57;100.00;61215.63;4940807;29;20044;-88
2022/10/27 10:01:42;;;;;;;64.60;30.13;;;;;;;-142.57;100.00;61215.63;4942891;29;20044;-89
2022/10/27 10:04:26;;;;;;;79.65;31.67;;;;;;;-142.57;100.00;61215.63;4936916;29;20478;-90
2022/10/27 10:07:29;;;;;;;78.30;33.17;;;;;;;-142.57;100.00;61215.63;4943554;29;20052;-89
2022/10/27 10:10:14;;;;;;;78.75;33.13;;;;;;;-142.57;100.00;61215.63;4951269;29;20063;-88
2022/10/27 10:12:42;;;;;;;66.72;32.92;;;;;;;-142.57;100.00;61215.63;4956654;29;20036;-89
2022/10/27 10:15:45;;;;;;;69.20;31.83;;;;;;;-142.57;100.00;61215.63;4938317;29;20044;-92
2022/10/27 10:18:20;;;;;;;79.90;34.42;;;;;;;-142.57;100.00;61215.63;4955445;29;20125;-89
2022/10/27 10:21:30;;;;;;;81.50;35.20;;;;;;;-142.57;100.00;61215.63;4951285;29;20063;-91
2022/10/27 10:24:00;;;;;;;80.25;34.85;;;;;;;-142.57;100.00;61215.63;4954724;29;20051;-88
2022/10/27 10:26:40;;;;;;;78.53;37.03;;;;;;;-142.57;100.00;61215.63;4938303;23;20054;-89
2022/10/27 10:29:49;;;;;;;82.13;35.55;;;;;;;-142.57;100.00;61215.63;4916453;29;20518;-88
2022/10/27 10:32:29;;;;;;;84.95;35.85;;;;;;;-142.57;100.00;61215.63;4899621;29;20507;-92
2022/10/27 10:35:20;;;;;;;81.97;35.80;;;;;;;-142.57;100.00;61215.63;4901974;29;20037;-89
2022/10/27 10:40:55;;;;;;;82.22;38.05;;;;;;;-142.57;100.00;61215.63;3781942;27;20056;-89
2022/10/27 10:43:39;;;;;;;82.10;39.08;;;;;;;-142.57;100.00;61215.63;4939801;29;20068;-87
2022/10/27 10:46:48;;;;;;;77.35;36.53;;;;;;;-142.57;100.00;61215.63;4934010;29;20040;-88
2022/10/27 10:49:21;;;;;;;85.70;38.13;;;;;;;-142.57;100.00;61215.63;4923598;23;20106;-90
2022/10/27 10:55:10;;;;;;;76.22;37.45;;;;;;;-142.57;100.00;61215.63;4263930;27;20040;-88
2022/10/27 10:57:52;;;;;;;86.30;40.63;;;;;;;-142.57;100.00;61215.63;4945327;23;20117;-89
2022/10/27 11:00:26;;;;;;;104.07;42.45;;;;;;;-142.57;100.00;61215.63;4940978;29;20043;-89
2022/10/27 11:03:26;;;;;;;90.50;41.00;;;;;;;-142.57;100.00;61215.63;4944927;29;20059;-89
2022/10/27 11:06:14;;;;;;;93.05;40.75;;;;;;;-142.57;100.00;61215.63;4890451;23;20064;-89
2022/10/27 11:08:43;;;;;;;95.15;42.38;;;;;;;-142.57;100.00;61215.63;4888981;29;20037;-86
2022/10/27 11:11:25;;;;;;;107.85;45.25;;;;;;;-142.57;100.00;61215.63;4901697;29;20021;-89
2022/10/27 11:13:57;;;;;;;96.95;43.35;;;;;;;-142.57;100.00;61215.63;4894819;29;20136;-90
2022/10/27 11:16:33;;;;;;;85.70;42.75;;;;;;;-142.57;100.00;61215.63;4892000;29;20035;-90
2022/10/27 11:19:39;;;;;;;97.13;43.17;;;;;;;-142.57;100.00;61215.63;4893375;29;20041;-91
2022/10/27 11:22:18;;;;;;;108.25;43.75;;;;;;;-142.57;100.00;61215.63;4891470;29;20049;-91
2022/10/27 11:25:05;;;;;;;92.22;43.05;;;;;;;-142.57;100.00;61215.63;4881521;29;20036;-90
2022/10/27 11:27:49;;;;;;;94.72;44.05;;;;;;;-142.57;100.00;61215.63;4888695;29;20073;-89
2022/10/27 11:30:30;;;;;;;94.00;43.95;;;;;;;-142.57;100.00;61215.63;4885572;29;20122;-88
2022/10/27 11:33:29;;;;;;;93.28;41.63;;;;;;;-142.57;100.00;61215.63;4880543;29;20041;-88
2022/10/27 11:40:18;;;;;;;101.97;43.60;;;;;;;-142.57;100.00;61215.63;4670339;27;20048;-90
2022/10/27 11:43:20;;;;;;;89.40;42.63;;;;;;;-142.57;100.00;61215.63;4947563;23;20044;-90
2022/10/27 11:46:26;;;;;;;94.53;42.47;;;;;;;-142.57;100.00;61215.63;4925379;23;20067;-91
2022/10/27 11:48:55;;;;;;;88.43;41.90;;;;;;;-142.57;100.00;61215.63;4915501;29;20513;-90
2022/10/27 11:51:55;;;;;;;94.40;43.65;;;;;;;-142.57;100.00;61215.63;4909871;29;20048;-92
2022/10/27 11:54:25;;;;;;;88.63;41.95;;;;;;;-142.57;100.00;61215.63;4900442;29;20052;-89
2022/10/27 11:57:21;;;;;;;89.00;42.08;;;;;;;-142.57;100.00;61215.63;4907167;29;20033;-88
2022/10/27 12:00:10;;;;;;;86.88;40.22;;;;;;;-142.57;100.00;61215.63;4905693;29;20033;-90
2022/10/27 12:03:06;;;;;;;79.55;39.50;;;;;;;-142.57;100.00;61215.63;4904680;29;20037;-90
2022/10/27 12:05:53;;;;;;;90.28;42.63;;;;;;;-142.57;100.00;61215.63;4906405;29;20064;-91
2022/10/27 12:08:30;;;;;;;103.68;43.65;;;;;;;-142.57;100.00;61215.63;4902742;29;20032;-92
2022/10/27 12:11:18;;;;;;;134.90;47.05;;;;;;;-142.57;100.00;61215.63;4903895;29;20037;-91
2022/10/27 12:14:23;;;;;;;110.28;45.97;;;;;;;-142.57;100.00;61215.63;4934062;29;20462;-90
2022/10/27 12:17:07;;;;;;;96.18;46.05;;;;;;;-142.57;100.00;61215.63;4896884;29;20044;-85
2022/10/27 12:19:43;;;;;;;94.45;42.95;;;;;;;-142.57;100.00;61215.63;4904931;29;20498;-89
2022/10/27 12:22:35;;;;;;;103.03;49.35;;;;;;;-142.57;100.00;61215.63;4899613;29;20040;-89
2022/10/27 12:25:27;;;;;;;108.03;48.90;;;;;;;-142.57;100.00;61215.63;4904146;29;20067;-87
2022/10/27 12:27:59;;;;;;;113.78;50.70;;;;;;;-142.57;100.00;61215.63;4904078;29;20048;-92
2022/10/27 12:30:25;;;;;;;;;;;;;;;-142.57;100.00;61215.63;4903916;29;20064;-89
2022/10/27 12:33:09;;;;;;;124.00;50.47;;;;;;;-142.57;100.00;61215.63;4903523;29;19923;-88
2022/10/27 12:35:43;;;;;;;103.75;49.15;;;;;;;-142.57;100.00;61215.63;4904112;29;20100;-90
2022/10/27 12:38:34;;;;;;;107.70;48.33;;;;;;;-142.57;100.00;61215.63;4900883;29;20452;-91
2022/10/27 12:41:22;;;;;;;106.35;49.65;;;;;;;-142.57;100.00;61215.63;4899924;29;20089;-91
2022/10/27 12:44:03;;;;;;;102.40;47.75;;;;;;;-142.57;100.00;61215.63;4903031;29;20045;-91
2022/10/27 12:46:50;;;;;;;90.22;46.25;;;;;;;-142.57;100.00;61215.63;4902291;29;20072;-91
2022/10/27 12:49:46;;;;;;;115.30;51.33;;;;;;;-142.57;100.00;61215.63;4903961;29;20043;-91
2022/10/27 12:52:20;;;;;;;109.55;49.38;;;;;;;-142.57;100.00;61215.63;4910303;29;20124;-89
2022/10/27 12:55:00;;;;;;;107.47;49.13;;;;;;;-142.57;100.00;61215.63;4921423;29;20025;-90
2022/10/27 13:00:01;;;;;;;97.18;47.55;;;;;;;-142.57;100.00;61215.63;4934042;29;20052;-89
2022/10/27 13:02:33;;;;;;;100.63;48.15;;;;;;;-142.57;100.00;61215.63;4937328;29;20040;-88
2022/10/27 13:05:10;;;;;;;107.10;46.27;;;;;;;-142.57;100.00;61215.63;4936480;29;20196;-87
2022/10/27 13:08:02;;;;;;;111.13;49.08;;;;;;;-142.57;100.00;61215.63;4933041;29;20050;-87
2022/10/27 13:10:37;;;;;;;104.38;48.58;;;;;;;-142.57;100.00;61215.63;4922940;29;20054;-86
2022/10/27 13:13:51;;;;;;;111.28;48.45;;;;;;;-142.57;100.00;61215.63;4922429;29;20155;-87
2022/10/27 13:16:16;;;;;;;114.00;48.25;;;;;;;-142.57;100.00;61215.63;4912622;29;20131;-88
2022/10/27 13:19:03;;;;;;;106.40;46.30;;;;;;;-142.57;100.00;61215.63;4920409;29;20028;-88
2022/10/27 13:21:32;;;;;;;100.43;47.25;;;;;;;-142.57;100.00;61215.63;4924524;29;20405;-89
2022/10/27 13:24:06;;;;;;;106.63;46.67;;;;;;;-142.57;100.00;61215.63;4927939;29;20051;-91
2022/10/27 13:26:40;;;;;;;106.97;46.80;;;;;;;-142.57;100.00;61215.63;4926488;29;20036;-87
2022/10/27 13:29:21;;;;;;;97.97;43.17;;;;;;;-142.57;100.00;61215.63;4925055;29;20036;-87
2022/10/27 13:32:15;;;;;;;102.05;44.72;;;;;;;-142.57;100.00;61215.63;4922419;29;20034;-87
2022/10/27 13:34:40;;;;;;;100.38;43.88;;;;;;;-142.57;100.00;61215.63;4914742;29;20486;-89
2022/10/27 13:37:43;;;;;;;101.68;45.25;;;;;;;-142.57;100.00;61215.63;4912591;29;20040;-88
2022/10/27 13:40:17;;;;;;;93.18;43.90;;;;;;;-142.57;100.00;61215.63;4914518;29;20048;-88
2022/10/27 13:42:53;;;;;;;93.88;42.97;;;;;;;-142.57;100.00;61215.63;4912194;29;20036;-88
2022/10/27 13:45:37;;;;;;;96.22;44.35;;;;;;;-142.57;100.00;61215.63;4914980;29;20123;-88
2022/10/27 13:48:09;;;;;;;97.03;42.10;;;;;;;-142.57;100.00;61215.63;4914547;29;20513;-88
2022/10/27 13:50:37;;;;;;;101.28;40.85;;;;;;;-142.57;100.00;61215.63;4915731;29;20059;-89
2022/10/27 13:53:15;;;;;;;94.97;41.08;;;;;;;-142.57;100.00;61215.63;4914387;29;20160;-87
2022/10/27 13:56:01;;;;;;;90.00;40.92;;;;;;;-142.57;100.00;61215.63;4911251;29;20044;-88
2022/10/27 13:58:41;;;;;;;94.45;40.67;;;;;;;-142.57;100.00;61215.63;4897997;29;20036;-88
2022/10/27 14:01:26;;;;;;;89.68;38.72;;;;;;;-142.57;100.00;61215.63;4897794;29;20466;-88
2022/10/27 14:03:52;;;;;;;99.72;41.65;;;;;;;-142.57;100.00;61215.63;4915798;29;20033;-85
2022/10/27 14:06:21;;;;;;;102.47;39.58;;;;;;;-142.57;100.00;61215.63;4918971;29;20059;-84
2022/10/27 14:08:50;;;;;;;85.57;38.50;;;;;;;-142.57;100.00;61215.63;4919027;29;20040;-88
2022/10/27 14:11:20;;;;;;;86.65;37.45;;;;;;;-142.57;100.00;61215.63;4915606;29;20068;-89
2022/10/27 14:13:48;;;;;;;81.32;40.22;;;;;;;-142.57;100.00;61215.63;4914231;29;20506;-88
2022/10/27 14:16:37;;;;;;;90.30;38.70;;;;;;;-142.57;100.00;61215.63;4916312;29;20197;-90
2022/10/27 14:19:10;;;;;;;91.40;40.15;;;;;;;-142.57;100.00;61215.63;4917611;29;20386;-87
2022/10/27 14:21:41;;;;;;;92.85;39.67;;;;;;;-142.57;100.00;61215.63;4919216;29;20048;-88
2022/10/27 14:24:18;;;;;;;76.78;36.10;;;;;;;-142.57;100.00;61215.63;4920087;29;20036;-92
2022/10/27 14:26:44;;;;;;;94.57;39.15;;;;;;;-142.57;100.00;61215.63;4923112;29;20151;-93
2022/10/27 14:29:21;;;;;;;74.30;34.85;;;;;;;-142.57;100.00;61215.63;4921911;29;20489;-92
2022/10/27 14:31:47;;;;;;;81.57;37.17;;;;;;;-142.57;100.00;61215.63;4910895;29;20312;-90
2022/10/27 14:34:22;;;;;;;80.38;37.13;;;;;;;-142.57;100.00;61215.63;4911980;29;20051;-91
2022/10/27 14:36:49;;;;;;;74.28;32.95;;;;;;;-142.57;100.00;61215.63;4937823;29;20032;-90
2022/10/27 14:39:30;;;;;;;75.78;34.17;;;;;;;-142.57;100.00;61215.63;4928248;29;20068;-91
2022/10/27 14:42:22;;;;;;;73.32;34.67;;;;;;;-142.57;100.00;61215.63;4907896;29;20506;-90
2022/10/27 14:44:56;;;;;;;71.72;32.38;;;;;;;-142.57;100.00;61215.63;4906093;29;20037;-93
2022/10/27 14:47:26;;;;;;;75.13;34.20;;;;;;;-142.57;100.00;61215.63;4920161;29;20048;-92
2022/10/27 14:49:57;;;;;;;73.63;34.15;;;;;;;-142.57;100.00;61215.63;4928479;29;20063;-91
2022/10/27 14:52:38;;;;;;;75.22;34.72;;;;;;;-142.57;100.00;61215.63;4930007;29;20028;-90
2022/10/27 14:55:05;;;;;;;77.57;34.08;;;;;;;-142.57;100.00;61215.63;4929496;29;20074;-91
2022/10/27 14:57:36;;;;;;;70.72;32.28;;;;;;;-142.57;100.00;61215.63;4929987;29;20068;-91
2022/10/27 15:00:22;;;;;;;70.13;31.45;;;;;;;-142.57;100.00;61215.63;4929886;29;20077;-93
2022/10/27 15:02:49;;;;;;;74.80;34.72;;;;;;;-142.57;100.00;61215.63;4927276;29;20032;-88
2022/10/27 15:05:22;;;;;;;68.68;31.35;;;;;;;-142.57;100.00;61215.63;4925717;29;20059;-89
2022/10/27 15:07:58;;;;;;;68.68;29.90;;;;;;;-142.57;100.00;61215.63;4923287;29;20047;-89
2022/10/27 15:10:36;;;;;;;63.45;29.92;;;;;;;-142.57;100.00;61215.63;4928624;29;20036;-92
2022/10/27 15:13:05;;;;;;;70.22;32.17;;;;;;;-142.57;100.00;61215.63;4930484;29;20036;-90
2022/10/27 15:15:41;;;;;;;67.25;30.52;;;;;;;-142.57;100.00;61215.63;4929142;29;20058;-92
2022/10/27 15:18:27;;;;;;;86.10;40.42;;;;;;;-142.57;100.00;61215.63;4925274;29;20041;-87
2022/10/27 15:20:54;;;;;;;67.47;31.10;;;;;;;-142.57;100.00;61215.63;4919949;29;20224;-88
2022/10/27 15:23:21;;;;;;;64.25;29.67;;;;;;;-142.57;100.00;61215.63;4920279;29;20435;-90
2022/10/27 15:25:51;;;;;;;66.53;29.80;;;;;;;-142.57;100.00;61215.63;4920222;29;20038;-91
2022/10/27 15:28:25;;;;;;;72.95;30.75;;;;;;;-142.57;100.00;61215.63;4920051;29;20050;-88
2022/10/27 15:30:52;;;;;;;72.57;31.20;;;;;;;-142.57;100.00;61215.63;4918829;29;20390;-88
2022/10/27 15:33:26;;;;;;;70.72;30.13;;;;;;;-142.57;100.00;61215.63;4919765;29;20206;-89
2022/10/27 15:36:28;;;;;;;66.32;29.85;;;;;;;-142.57;100.00;61215.63;4922335;29;20131;-87
2022/10/27 15:38:54;;;;;;;65.07;30.85;;;;;;;-142.57;100.00;61215.63;4879854;29;20056;-90
2022/10/27 15:41:31;;;;;;;71.57;30.13;;;;;;;-142.57;100.00;61215.63;4911033;29;20044;-88
2022/10/27 15:44:02;;;;;;;67.40;30.42;;;;;;;-142.57;100.00;61215.63;4921961;29;20036;-87
2022/10/27 15:46:32;;;;;;;65.10;28.50;;;;;;;-142.57;100.00;61215.63;4920847;29;20099;-87
2022/10/27 15:49:01;;;;;;;68.00;30.92;;;;;;;-142.57;100.00;61215.63;4925776;29;20072;-89
2022/10/27 15:51:48;;;;;;;60.72;30.00;;;;;;;-142.57;100.00;61215.63;4917554;29;20506;-88
2022/10/27 15:54:32;;;;;;;70.80;31.25;;;;;;;-142.57;100.00;61215.63;4919101;29;20083;-88
2022/10/27 15:56:59;;;;;;;79.00;32.08;;;;;;;-142.57;100.00;61215.63;4917557;29;20493;-87
2022/10/27 15:59:28;;;;;;;64.47;30.55;;;;;;;-142.57;100.00;61215.63;4921390;29;20040;-86
2022/10/27 16:02:04;;;;;;;69.75;32.42;;;;;;;-142.57;100.00;61215.63;4903664;29;20133;-88
2022/10/27 16:04:38;;;;;;;62.45;30.58;;;;;;;-142.57;100.00;61215.63;4900280;29;20036;-88
2022/10/27 16:10:05;;;;;;;67.13;32.47;;;;;;;-142.57;100.00;61215.63;4645814;27;20048;-92
2022/10/27 16:12:41;;;;;;;75.90;34.25;;;;;;;-142.57;100.00;61215.63;4947248;29;20075;-91
2022/10/27 16:15:33;;;;;;;70.65;33.80;;;;;;;-142.57;100.00;61215.63;4947126;29;20055;-93
2022/10/27 16:20:47;;;;;;;74.00;33.70;;;;;;;-142.57;100.00;61215.63;4911615;29;20097;-91
2022/10/27 16:23:16;;;;;;;71.07;33.78;;;;;;;-142.57;100.00;61215.63;4907004;29;20044;-92
2022/10/27 16:25:49;;;;;;;76.22;34.13;;;;;;;-142.57;100.00;61215.63;4907277;29;20045;-91
2022/10/27 16:28:26;;;;;;;67.38;30.77;;;;;;;-142.57;100.00;61215.63;4907750;29;20051;-93
2022/10/27 16:31:01;;;;;;;75.70;33.63;;;;;;;-142.57;100.00;61215.63;4910765;29;20037;-91
2022/10/27 16:33:48;;;;;;;74.73;32.70;;;;;;;-142.57;100.00;61215.63;4901307;29;20480;-90
2022/10/27 16:36:19;;;;;;;79.28;34.05;;;;;;;-142.57;100.00;61215.63;4888679;29;20044;-90
2022/10/27 16:38:56;;;;;;;71.97;33.25;;;;;;;-142.57;100.00;61215.63;4902223;29;20048;-91
2022/10/27 16:41:45;;;;;;;77.68;34.53;;;;;;;-142.57;100.00;61215.63;4898843;29;20040;-92
2022/10/27 16:44:15;;;;;;;72.00;34.25;;;;;;;-142.57;100.00;61215.63;4904451;29;20036;-87
2022/10/27 16:47:00;;;;;;;77.90;35.28;;;;;;;-142.57;100.00;61215.63;4904669;29;20041;-89
2022/10/27 16:49:25;;;;;;;80.63;37.30;;;;;;;-142.57;100.00;61215.63;4903231;29;20033;-87
2022/10/27 16:51:51;;;;;;;78.95;38.60;;;;;;;-142.57;100.00;61215.63;4893749;29;20069;-87
2022/10/27 16:54:37;;;;;;;87.82;39.78;;;;;;;-142.57;100.00;61215.63;4906692;29;20076;-89
2022/10/27 16:57:04;;;;;;;91.70;39.30;;;;;;;-142.57;100.00;61215.63;4921369;29;20037;-88
2022/10/27 16:59:30;;;;;;;86.80;41.25;;;;;;;-142.57;100.00;61215.63;4915872;29;20021;-85
2022/10/27 17:01:55;;;;;;;95.47;43.00;;;;;;;-142.57;100.00;61215.63;4900391;29;20391;-87
2022/10/27 17:04:21;;;;;;;103.80;44.70;;;;;;;-142.57;100.00;61215.63;4898770;29;20061;-89
2022/10/27 17:06:48;;;;;;;95.50;41.63;;;;;;;-142.57;100.00;61215.63;4888577;29;20037;-89
2022/10/27 17:09:14;;;;;;;97.40;47.35;;;;;;;-142.57;100.00;61215.63;4906178;29;20041;-90
2022/10/27 17:11:40;;;;;;;116.88;53.58;;;;;;;-142.57;100.00;61215.63;4914444;29;20037;-90
2022/10/27 17:14:06;;;;;;;91.43;45.03;;;;;;;-142.57;100.00;61215.63;4901722;29;20046;-91
2022/10/27 17:16:35;;;;;;;99.38;42.97;;;;;;;-142.57;100.00;61215.63;4903842;29;20059;-92
2022/10/27 17:19:01;;;;;;;100.55;42.45;;;;;;;-142.57;100.00;61215.63;4899948;29;20115;-92
2022/10/27 17:21:27;;;;;;;100.60;43.67;;;;;;;-142.57;100.00;61215.63;4901586;29;20483;-90
2022/10/27 17:23:52;;;;;;;92.40;40.88;;;;;;;-142.57;100.00;61215.63;4898940;29;20040;-91
2022/10/27 17:26:19;;;;;;;103.68;44.08;;;;;;;-142.57;100.00;61215.63;4898194;29;20036;-89
2022/10/27 17:29:05;;;;;;;96.45;43.78;;;;;;;-142.57;100.00;61215.63;4899757;29;20036;-89
2022/10/27 17:31:31;;;;;;;93.75;42.78;;;;;;;-142.57;100.00;61215.63;4912964;29;20052;-91
2022/10/27 17:33:58;;;;;;;89.43;42.20;;;;;;;-142.57;100.00;61215.63;4914368;29;20045;-90
2022/10/27 17:36:24;;;;;;;100.55;41.97;;;;;;;-142.57;100.00;61215.63;4919298;29;20076;-90
2022/10/27 17:38:50;;;;;;;107.13;43.75;;;;;;;-142.57;100.00;61215.63;4950678;29;20032;-90
2022/10/27 17:41:16;;;;;;;99.47;43.88;;;;;;;-142.57;100.00;61215.63;4918739;29;20036;-87
2022/10/27 17:43:41;;;;;;;101.22;42.13;;;;;;;-142.57;100.00;61215.63;4892673;29;20135;-89
2022/10/27 17:46:15;;;;;;;93.57;39.20;;;;;;;-142.57;100.00;61215.63;4903211;29;20106;-85
2022/10/27 17:48:43;;;;;;;88.55;40.17;;;;;;;-142.57;100.00;61215.63;4916901;29;20040;-91
2022/10/27 17:51:20;;;;;;;94.45;41.38;;;;;;;-142.57;100.00;61215.63;4921865;29;20039;-90
2022/10/27 17:53:46;;;;;;;86.13;37.40;;;;;;;-142.57;100.00;61215.63;4924503;29;20059;-89
2022/10/27 17:56:21;;;;;;;95.15;39.25;;;;;;;-142.57;100.00;61215.63;4931931;29;20059;-88
2022/10/27 17:58:48;;;;;;;93.13;36.78;;;;;;;-142.57;100.00;61215.63;4915132;29;20036;-90
2022/10/27 18:01:31;;;;;;;100.55;37.55;;;;;;;-142.57;100.00;61215.63;4942498;29;20031;-90
2022/10/27 18:04:05;;;;;;;89.22;37.80;;;;;;;-142.57;100.00;61215.63;4929951;29;20096;-90
2022/10/27 18:06:31;;;;;;;85.80;37.03;;;;;;;-142.57;100.00;61215.63;4926529;29;20134;-88
2022/10/27 18:09:01;;;;;;;85.90;36.15;;;;;;;-142.57;100.00;61215.63;4931218;29;20036;-91
2022/10/27 18:11:29;;;;;;;92.32;39.75;;;;;;;-142.57;100.00;61215.63;4912866;29;20028;-91
2022/10/27 18:13:58;;;;;;;90.07;37.33;;;;;;;-142.57;100.00;61215.63;4934130;29;20043;-91
2022/10/27 18:16:33;;;;;;;89.82;38.33;;;;;;;-142.57;100.00;61215.63;4933338;29;20048;-90
2022/10/27 18:19:22;;;;;;;87.63;37.50;;;;;;;-142.57;100.00;61215.63;4938758;29;20052;-91
2022/10/27 18:21:57;;;;;;;86.95;36.92;;;;;;;-142.57;100.00;61215.63;4939471;29;20052;-90
2022/10/27 18:24:54;;;;;;;85.97;36.85;;;;;;;-142.57;100.00;61215.63;4937764;29;20060;-91
2022/10/27 18:27:23;;;;;;;79.22;36.55;;;;;;;-142.57;100.00;61215.63;4936471;29;20405;-90
2022/10/27 18:29:48;;;;;;;92.43;37.33;;;;;;;-142.57;100.00;61215.63;4929202;29;20052;-90